sensor_id;sensor_type;location;lat;lon;timestamp;temperature;humidity
24087;DHT22;22893;50.572;7.234;2022-12-10T06:14:25;19.30;56.90
24087;DHT22;22893;50.572;7.234;2022-12-10T06:16:52;19.30;57.20
24087;DHT22;22893;50.572;7.234;2022-12-10T06:19:20;19.30;56.90
24087;DHT22;22893;50.572;7.234;2022-12-10T06:21:47;19.40;57.70
24087;DHT22;22893;50.572;7.234;2022-12-10T06:24:15;19.50;56.90
24087;DHT22;22893;50.572;7.234;2022-12-10T06:26:42;19.50;56.90
24087;DHT22;22893;50.572;7.234;2022-12-10T06:29:10;19.50;56.80
24087;DHT22;22893;50.572;7.234;2022-12-10T06:31:37;19.60;57.00
24087;DHT22;22893;50.572;7.234;2022-12-10T06:34:05;19.60;56.80
24087;DHT22;22893;50.572;7.234;2022-12-10T06:36:32;19.60;56.80
24087;DHT22;22893;50.572;7.234;2022-12-10T06:39:00;19.60;56.80
24087;DHT22;22893;50.572;7.234;2022-12-10T06:41:28;19.60;56.70
24087;DHT22;22893;50.572;7.234;2022-12-10T06:43:55;19.70;57.00
24087;DHT22;22893;50.572;7.234;2022-12-10T06:46:26;19.70;57.50
24087;DHT22;22893;50.572;7.234;2022-12-10T06:48:54;19.70;57.10
24087;DHT22;22893;50.572;7.234;2022-12-10T06:51:22;19.70;57.10
24087;DHT22;22893;50.572;7.234;2022-12-10T06:53:50;19.70;57.20
24087;DHT22;22893;50.572;7.234;2022-12-10T06:56:18;19.70;57.20
24087;DHT22;22893;50.572;7.234;2022-12-10T06:58:47;19.70;57.20
24087;DHT22;22893;50.572;7.234;2022-12-10T07:01:20;19.70;57.20
24087;DHT22;22893;50.572;7.234;2022-12-10T07:03:50;19.80;57.20
24087;DHT22;22893;50.572;7.234;2022-12-10T07:06:18;19.80;57.10
24087;DHT22;22893;50.572;7.234;2022-12-10T07:08:46;19.80;57.10
24087;DHT22;22893;50.572;7.234;2022-12-10T07:11:16;19.80;57.20
24087;DHT22;22893;50.572;7.234;2022-12-10T07:13:44;19.80;57.20
24087;DHT22;22893;50.572;7.234;2022-12-10T07:16:14;19.80;57.20
24087;DHT22;22893;50.572;7.234;2022-12-10T07:18:42;19.80;57.10
24087;DHT22;22893;50.572;7.234;2022-12-10T15:58:13;19.80;55.90
24087;DHT22;22893;50.572;7.234;2022-12-10T16:00:41;20.30;54.00
24087;DHT22;22893;50.572;7.234;2022-12-10T16:03:15;20.40;53.80
24087;DHT22;22893;50.572;7.234;2022-12-10T16:05:44;20.40;53.70
24087;DHT22;22893;50.572;7.234;2022-12-10T16:08:24;20.40;53.80
24087;DHT22;22893;50.572;7.234;2022-12-10T16:10:56;20.40;53.80
24087;DHT22;22893;50.572;7.234;2022-12-10T16:13:32;20.40;54.00
24087;DHT22;22893;50.572;7.234;2022-12-10T16:16:04;20.40;53.90
24087;DHT22;22893;50.572;7.234;2022-12-10T16:18:32;20.40;54.10
24087;DHT22;22893;50.572;7.234;2022-12-10T16:21:03;20.40;53.90
24087;DHT22;22893;50.572;7.234;2022-12-10T16:23:33;20.50;53.90
24087;DHT22;22893;50.572;7.234;2022-12-10T16:26:04;20.50;54.00
24087;DHT22;22893;50.572;7.234;2022-12-10T16:28:33;20.50;54.20
24087;DHT22;22893;50.572;7.234;2022-12-10T16:31:00;20.50;54.30
24087;DHT22;22893;50.572;7.234;2022-12-10T16:33:28;20.50;54.40
24087;DHT22;22893;50.572;7.234;2022-12-10T16:35:56;20.50;54.50
24087;DHT22;22893;50.572;7.234;2022-12-10T16:38:24;20.50;54.60
24087;DHT22;22893;50.572;7.234;2022-12-10T16:40:53;20.50;54.80
24087;DHT22;22893;50.572;7.234;2022-12-10T16:43:24;20.60;55.00
24087;DHT22;22893;50.572;7.234;2022-12-10T16:45:55;20.50;54.90
24087;DHT22;22893;50.572;7.234;2022-12-10T16:48:23;20.60;54.90
24087;DHT22;22893;50.572;7.234;2022-12-10T16:50:51;20.60;55.00
24087;DHT22;22893;50.572;7.234;2022-12-10T16:53:23;20.60;55.00
24087;DHT22;22893;50.572;7.234;2022-12-10T16:55:50;20.50;55.20
24087;DHT22;22893;50.572;7.234;2022-12-10T16:58:18;20.40;55.70
24087;DHT22;22893;50.572;7.234;2022-12-10T17:00:49;20.40;56.00
24087;DHT22;22893;50.572;7.234;2022-12-10T17:03:21;20.40;56.10
24087;DHT22;22893;50.572;7.234;2022-12-10T17:05:59;20.40;56.20
24087;DHT22;22893;50.572;7.234;2022-12-10T17:08:24;20.30;56.30
24087;DHT22;22893;50.572;7.234;2022-12-10T17:10:53;20.30;56.30
24087;DHT22;22893;50.572;7.234;2022-12-10T17:13:39;20.30;56.30
24087;DHT22;22893;50.572;7.234;2022-12-10T17:16:12;20.30;56.40
24087;DHT22;22893;50.572;7.234;2022-12-10T17:18:41;20.40;56.50
24087;DHT22;22893;50.572;7.234;2022-12-10T17:21:08;20.30;56.50
24087;DHT22;22893;50.572;7.234;2022-12-10T17:23:36;20.30;56.60
24087;DHT22;22893;50.572;7.234;2022-12-10T17:26:03;20.30;56.60
24087;DHT22;22893;50.572;7.234;2022-12-10T17:28:32;20.40;56.70
24087;DHT22;22893;50.572;7.234;2022-12-10T17:31:00;20.40;56.80
24087;DHT22;22893;50.572;7.234;2022-12-10T17:33:27;20.40;56.80
24087;DHT22;22893;50.572;7.234;2022-12-10T17:35:55;20.40;57.00
24087;DHT22;22893;50.572;7.234;2022-12-10T17:38:26;20.40;57.10
24087;DHT22;22893;50.572;7.234;2022-12-10T17:40:54;20.30;57.10
24087;DHT22;22893;50.572;7.234;2022-12-10T17:43:21;20.30;57.20
24087;DHT22;22893;50.572;7.234;2022-12-10T17:45:51;20.40;57.40
24087;DHT22;22893;50.572;7.234;2022-12-10T17:48:20;20.40;57.40
24087;DHT22;22893;50.572;7.234;2022-12-10T17:50:47;20.40;57.20
24087;DHT22;22893;50.572;7.234;2022-12-10T17:53:15;20.40;57.00
24087;DHT22;22893;50.572;7.234;2022-12-10T17:55:56;20.40;56.70
24087;DHT22;22893;50.572;7.234;2022-12-10T17:58:24;20.40;56.60
24087;DHT22;22893;50.572;7.234;2022-12-10T18:00:53;20.40;56.60
24087;DHT22;22893;50.572;7.234;2022-12-10T18:03:21;20.30;56.60
24087;DHT22;22893;50.572;7.234;2022-12-10T18:05:48;20.40;56.70
24087;DHT22;22893;50.572;7.234;2022-12-10T18:08:17;20.40;56.70
24087;DHT22;22893;50.572;7.234;2022-12-10T18:10:50;20.40;56.70
24087;DHT22;22893;50.572;7.234;2022-12-10T18:13:20;20.30;56.60
24087;DHT22;22893;50.572;7.234;2022-12-10T18:15:47;20.30;56.60
24087;DHT22;22893;50.572;7.234;2022-12-10T18:18:15;20.40;56.70
24087;DHT22;22893;50.572;7.234;2022-12-10T18:20:43;20.40;56.70
24087;DHT22;22893;50.572;7.234;2022-12-10T18:23:12;20.40;56.70
24087;DHT22;22893;50.572;7.234;2022-12-10T18:25:41;20.40;56.80
24087;DHT22;22893;50.572;7.234;2022-12-10T18:30:53;20.40;56.70
24087;DHT22;22893;50.572;7.234;2022-12-10T18:33:23;20.40;56.70
24087;DHT22;22893;50.572;7.234;2022-12-10T18:35:51;20.40;56.60
24087;DHT22;22893;50.572;7.234;2022-12-10T18:38:19;20.40;56.60
24087;DHT22;22893;50.572;7.234;2022-12-10T18:40:47;20.30;56.60
24087;DHT22;22893;50.572;7.234;2022-12-10T18:43:14;20.40;56.60
24087;DHT22;22893;50.572;7.234;2022-12-10T18:45:42;20.40;56.50
24087;DHT22;22893;50.572;7.234;2022-12-10T18:48:10;20.40;56.30
24087;DHT22;22893;50.572;7.234;2022-12-10T18:50:37;20.40;56.30
24087;DHT22;22893;50.572;7.234;2022-12-10T18:53:05;20.40;56.20
24087;DHT22;22893;50.572;7.234;2022-12-10T18:55:33;20.30;56.20
24087;DHT22;22893;50.572;7.234;2022-12-10T18:58:00;20.40;56.20
24087;DHT22;22893;50.572;7.234;2022-12-10T19:00:28;20.30;56.10
24087;DHT22;22893;50.572;7.234;2022-12-10T19:03:00;20.40;56.20
24087;DHT22;22893;50.572;7.234;2022-12-10T19:05:27;20.40;56.10
24087;DHT22;22893;50.572;7.234;2022-12-10T19:07:55;20.40;56.10
24087;DHT22;22893;50.572;7.234;2022-12-10T19:10:24;20.40;56.10
24087;DHT22;22893;50.572;7.234;2022-12-10T19:12:52;20.40;56.10
24087;DHT22;22893;50.572;7.234;2022-12-10T19:15:20;20.40;55.80
24087;DHT22;22893;50.572;7.234;2022-12-10T19:17:49;20.40;55.70
24087;DHT22;22893;50.572;7.234;2022-12-10T19:20:22;20.40;55.70
24087;DHT22;22893;50.572;7.234;2022-12-10T19:22:51;20.40;55.70
24087;DHT22;22893;50.572;7.234;2022-12-10T19:25:20;20.40;55.80
24087;DHT22;22893;50.572;7.234;2022-12-10T19:27:48;20.40;55.80
24087;DHT22;22893;50.572;7.234;2022-12-10T19:30:19;20.40;55.80
24087;DHT22;22893;50.572;7.234;2022-12-10T19:32:47;20.40;55.90
24087;DHT22;22893;50.572;7.234;2022-12-10T19:35:16;20.40;55.80
24087;DHT22;22893;50.572;7.234;2022-12-10T19:37:45;20.40;55.80
24087;DHT22;22893;50.572;7.234;2022-12-10T19:40:25;20.40;55.80
24087;DHT22;22893;50.572;7.234;2022-12-10T19:42:52;20.30;55.80
24087;DHT22;22893;50.572;7.234;2022-12-10T19:45:20;20.40;55.80
24087;DHT22;22893;50.572;7.234;2022-12-10T19:47:50;20.40;55.80
24087;DHT22;22893;50.572;7.234;2022-12-10T19:50:25;20.30;55.70
24087;DHT22;22893;50.572;7.234;2022-12-10T19:52:53;20.40;55.80
24087;DHT22;22893;50.572;7.234;2022-12-10T19:55:22;20.40;55.80
24087;DHT22;22893;50.572;7.234;2022-12-10T19:57:50;20.40;55.80
24087;DHT22;22893;50.572;7.234;2022-12-10T20:00:21;20.40;55.80
24087;DHT22;22893;50.572;7.234;2022-12-10T20:02:49;20.40;55.80
24087;DHT22;22893;50.572;7.234;2022-12-10T20:05:17;20.40;55.80
24087;DHT22;22893;50.572;7.234;2022-12-10T20:07:46;20.40;55.70
24087;DHT22;22893;50.572;7.234;2022-12-10T20:10:25;20.40;55.80
24087;DHT22;22893;50.572;7.234;2022-12-10T20:12:53;20.40;55.80
24087;DHT22;22893;50.572;7.234;2022-12-10T20:15:22;20.40;55.70
24087;DHT22;22893;50.572;7.234;2022-12-10T20:17:50;20.40;55.80
24087;DHT22;22893;50.572;7.234;2022-12-10T20:20:24;20.40;55.80
24087;DHT22;22893;50.572;7.234;2022-12-10T20:22:53;20.40;55.80
24087;DHT22;22893;50.572;7.234;2022-12-10T20:25:21;20.40;55.80
24087;DHT22;22893;50.572;7.234;2022-12-10T20:27:50;20.40;55.80
24087;DHT22;22893;50.572;7.234;2022-12-10T20:30:26;20.40;55.80
24087;DHT22;22893;50.572;7.234;2022-12-10T20:32:55;20.40;55.80
24087;DHT22;22893;50.572;7.234;2022-12-10T20:35:23;20.40;55.90
24087;DHT22;22893;50.572;7.234;2022-12-10T20:37:52;20.40;55.80
24087;DHT22;22893;50.572;7.234;2022-12-10T20:40:22;20.40;55.80
24087;DHT22;22893;50.572;7.234;2022-12-10T20:42:55;20.40;55.80
24087;DHT22;22893;50.572;7.234;2022-12-10T20:45:23;20.40;55.80
24087;DHT22;22893;50.572;7.234;2022-12-10T20:47:51;20.40;55.80
24087;DHT22;22893;50.572;7.234;2022-12-10T20:50:18;20.40;55.80
24087;DHT22;22893;50.572;7.234;2022-12-10T20:52:46;20.40;55.80
24087;DHT22;22893;50.572;7.234;2022-12-10T20:55:14;20.40;55.80
24087;DHT22;22893;50.572;7.234;2022-12-10T20:57:41;20.40;55.80
24087;DHT22;22893;50.572;7.234;2022-12-10T21:00:16;20.40;56.20
24087;DHT22;22893;50.572;7.234;2022-12-10T21:02:44;20.40;55.80
24087;DHT22;22893;50.572;7.234;2022-12-10T21:05:13;20.40;55.90
24087;DHT22;22893;50.572;7.234;2022-12-10T21:07:41;20.40;55.80
24087;DHT22;22893;50.572;7.234;2022-12-10T21:10:12;20.40;55.90
24087;DHT22;22893;50.572;7.234;2022-12-10T21:12:41;20.40;55.90
24087;DHT22;22893;50.572;7.234;2022-12-10T21:15:09;20.40;55.90
24087;DHT22;22893;50.572;7.234;2022-12-10T21:17:37;20.40;55.90
24087;DHT22;22893;50.572;7.234;2022-12-10T21:20:04;20.40;55.80
24087;DHT22;22893;50.572;7.234;2022-12-10T21:22:32;20.40;55.90
24087;DHT22;22893;50.572;7.234;2022-12-10T21:25:00;20.40;55.80
24087;DHT22;22893;50.572;7.234;2022-12-10T21:27:27;20.40;55.80
24087;DHT22;22893;50.572;7.234;2022-12-10T21:29:55;20.40;55.80
24087;DHT22;22893;50.572;7.234;2022-12-10T21:32:23;20.40;55.80
24087;DHT22;22893;50.572;7.234;2022-12-10T21:34:50;20.40;55.90
24087;DHT22;22893;50.572;7.234;2022-12-10T21:37:18;20.40;55.80
24087;DHT22;22893;50.572;7.234;2022-12-10T21:39:45;20.40;55.80
24087;DHT22;22893;50.572;7.234;2022-12-10T21:42:13;20.40;55.80
24087;DHT22;22893;50.572;7.234;2022-12-10T21:44:59;20.40;55.80
24087;DHT22;22893;50.572;7.234;2022-12-10T21:47:26;20.40;55.80
24087;DHT22;22893;50.572;7.234;2022-12-10T21:49:54;20.40;55.90
24087;DHT22;22893;50.572;7.234;2022-12-10T21:52:21;20.40;55.80
24087;DHT22;22893;50.572;7.234;2022-12-10T21:54:49;20.40;55.80
24087;DHT22;22893;50.572;7.234;2022-12-10T21:57:16;20.40;55.70
24087;DHT22;22893;50.572;7.234;2022-12-10T21:59:44;20.50;55.70
24087;DHT22;22893;50.572;7.234;2022-12-10T22:02:11;20.40;55.70
24087;DHT22;22893;50.572;7.234;2022-12-10T22:04:39;20.50;55.70
24087;DHT22;22893;50.572;7.234;2022-12-10T22:07:06;20.40;55.70
24087;DHT22;22893;50.572;7.234;2022-12-10T22:09:34;20.50;55.70
24087;DHT22;22893;50.572;7.234;2022-12-10T22:12:02;20.40;55.70
24087;DHT22;22893;50.572;7.234;2022-12-10T22:14:30;20.50;56.40
24087;DHT22;22893;50.572;7.234;2022-12-10T22:16:57;20.50;55.70
24087;DHT22;22893;50.572;7.234;2022-12-10T22:19:25;20.40;55.70
24087;DHT22;22893;50.572;7.234;2022-12-10T22:21:53;20.50;55.70
24087;DHT22;22893;50.572;7.234;2022-12-10T22:24:20;20.50;55.60
24087;DHT22;22893;50.572;7.234;2022-12-10T22:26:48;20.40;55.60
